Time;durP1;ratioP1;P1;durP2;ratioP2;P2;SDS_P1;SDS_P2;PMS_P1;PMS_P2;Temp;Humidity;BMP_temperature;BMP_pressure;BME280_temperature;BME280_humidity;BME280_pressure;Samples;Min_cycle;Max_cycle;Signal;HPM_P1;HPM_P2
2021/08/31 00:01:56;;;;;;;15.52;11.48;;;;;;;15.54;100.00;100784.34;5051885;28;20287;-65
2021/08/31 00:04:40;;;;;;;16.83;10.18;;;;;;;15.53;100.00;100781.81;5056328;28;20052;-66
2021/08/31 00:07:24;;;;;;;16.73;10.88;;;;;;;15.54;100.00;100778.13;5056067;28;20051;-66
2021/08/31 00:10:10;;;;;;;16.52;11.90;;;;;;;15.62;100.00;100786.22;5056694;28;20139;-65
2021/08/31 00:12:54;;;;;;;16.10;11.93;;;;;;;15.57;100.00;100782.16;5056234;28;20506;-65
2021/08/31 00:15:38;;;;;;;15.77;11.40;;;;;;;15.62;100.00;100786.22;5056836;28;20239;-65
2021/08/31 00:18:22;;;;;;;15.40;11.30;;;;;;;15.57;100.00;100783.16;5042075;28;20098;-65
2021/08/31 00:21:05;;;;;;;15.45;11.60;;;;;;;15.61;100.00;100779.16;5056397;28;20137;-66
2021/08/31 00:23:49;;;;;;;22.58;11.38;;;;;;;15.55;100.00;100782.47;5056781;28;20410;-65
2021/08/31 00:26:33;;;;;;;;;;;;;;;15.51;100.00;100779.28;5057182;28;20472;-65
2021/08/31 00:29:17;;;;;;;14.23;9.52;;;;;;;15.52;100.00;100777.44;5041336;28;19920;-65
2021/08/31 00:32:01;;;;;;;13.15;9.45;;;;;;;15.51;100.00;100778.44;5055486;28;20094;-65
2021/08/31 00:34:45;;;;;;;13.02;9.18;;;;;;;15.50;100.00;100782.16;5056605;28;20071;-65
2021/08/31 00:37:29;;;;;;;11.50;8.93;;;;;;;15.48;100.00;100776.06;5055598;28;20052;-66
2021/08/31 00:40:14;;;;;;;11.43;9.07;;;;;;;15.45;100.00;100784.47;5056346;28;20052;-65
2021/08/31 00:42:58;;;;;;;20.98;11.85;;;;;;;15.42;100.00;100790.16;5041487;28;20075;-65
2021/08/31 00:45:42;;;;;;;14.45;10.60;;;;;;;15.41;100.00;100783.13;5056460;28;20052;-65
2021/08/31 00:48:26;;;;;;;16.58;10.48;;;;;;;15.39;100.00;100777.06;5056331;28;20596;-65
2021/08/31 00:51:10;;;;;;;14.88;10.02;;;;;;;15.37;100.00;100785.28;5056001;28;20080;-65
2021/08/31 00:53:54;;;;;;;13.00;10.00;;;;;;;15.35;100.00;100789.13;5055239;28;20075;-65
2021/08/31 00:56:38;;;;;;;12.38;9.02;;;;;;;15.29;100.00;100784.38;5055193;28;20098;-66
2021/08/31 00:59:22;;;;;;;13.50;9.52;;;;;;;15.24;100.00;100786.69;5055938;28;20560;-66
2021/08/31 01:02:06;;;;;;;13.95;10.10;;;;;;;15.21;100.00;100795.09;5056017;28;20052;-66
2021/08/31 01:04:50;;;;;;;13.52;10.43;;;;;;;15.19;100.00;100794.41;5055131;28;20513;-65
2021/08/31 01:07:34;;;;;;;17.48;10.75;;;;;;;15.17;100.00;100786.50;5054957;28;20090;-63
2021/08/31 01:10:18;;;;;;;;;;;;;;;15.14;100.00;100792.22;5055199;28;20079;-65
2021/08/31 01:13:02;;;;;;;15.05;10.52;;;;;;;15.11;100.00;100791.69;5055634;28;19919;-66
2021/08/31 01:15:47;;;;;;;15.75;10.60;;;;;;;15.11;100.00;100799.75;5054138;28;20056;-66
2021/08/31 01:18:32;;;;;;;20.15;11.30;;;;;;;15.12;100.00;100796.88;5056083;28;20055;-66
2021/08/31 01:21:16;;;;;;;13.73;10.40;;;;;;;15.12;100.00;100804.09;5040161;28;20156;-65
2021/08/31 01:24:00;;;;;;;16.13;11.40;;;;;;;15.10;100.00;100800.75;5054614;28;20090;-66
2021/08/31 01:26:44;;;;;;;21.45;11.32;;;;;;;15.09;100.00;100799.06;5055363;28;20140;-66
2021/08/31 01:29:30;;;;;;;16.63;11.88;;;;;;;15.09;100.00;100805.25;5055710;28;20071;-64
2021/08/31 01:32:13;;;;;;;17.00;11.13;;;;;;;15.10;100.00;100803.44;5040177;28;20044;-65
2021/08/31 01:34:57;;;;;;;13.30;11.00;;;;;;;15.06;100.00;100810.09;5055330;28;20044;-66
2021/08/31 01:37:41;;;;;;;;;;;;;;;15.03;100.00;100807.75;5054882;28;20500;-65
2021/08/31 01:40:25;;;;;;;12.93;9.57;;;;;;;15.00;100.00;100806.22;5055305;28;20006;-66
2021/08/31 01:43:09;;;;;;;16.17;10.52;;;;;;;14.96;100.00;100804.00;5054081;28;20043;-66
2021/08/31 01:45:53;;;;;;;11.57;9.05;;;;;;;14.92;100.00;100818.75;5054267;28;20055;-65
2021/08/31 01:48:37;;;;;;;12.73;9.95;;;;;;;14.88;100.00;100812.03;5054948;28;20102;-66
2021/08/31 01:51:21;;;;;;;16.38;10.65;;;;;;;14.87;100.00;100821.06;5054120;28;20044;-66
2021/08/31 01:54:05;;;;;;;;;;;;;;;14.85;100.00;100817.69;5054264;28;20047;-65
2021/08/31 01:56:49;;;;;;;19.25;11.65;;;;;;;14.84;100.00;100818.69;5055070;28;20355;-65
2021/08/31 01:59:33;;;;;;;14.98;11.98;;;;;;;14.84;100.00;100824.06;5054643;28;20052;-65
2021/08/31 02:02:17;;;;;;;14.00;11.63;;;;;;;14.82;100.00;100824.25;5054721;28;20043;-66
2021/08/31 02:05:01;;;;;;;13.68;10.27;;;;;;;14.80;100.00;100825.41;5053811;28;20056;-66
2021/08/31 02:07:45;;;;;;;16.75;11.10;;;;;;;14.78;100.00;100822.88;5053574;28;20170;-66
2021/08/31 02:10:29;;;;;;;14.65;10.45;;;;;;;14.77;100.00;100820.31;5039367;28;20126;-66
2021/08/31 02:13:13;;;;;;;15.82;12.43;;;;;;;14.75;100.00;100811.59;5054890;28;20040;-66
2021/08/31 02:15:57;;;;;;;17.02;12.45;;;;;;;14.75;100.00;100809.75;5054661;28;20102;-65
2021/08/31 02:18:41;;;;;;;15.52;12.10;;;;;;;14.74;100.00;100817.97;5053626;28;20411;-66
2021/08/31 02:21:25;;;;;;;16.27;11.88;;;;;;;14.73;100.00;100814.47;5054397;28;20048;-65
2021/08/31 02:24:10;;;;;;;19.20;12.00;;;;;;;14.71;100.00;100818.28;5039346;28;20056;-65
2021/08/31 02:26:53;;;;;;;21.10;12.63;;;;;;;14.69;100.00;100822.97;5052458;28;20094;-66
2021/08/31 02:29:38;;;;;;;17.75;12.88;;;;;;;14.63;100.00;100824.44;5053364;28;20083;-65
2021/08/31 02:32:22;;;;;;;22.30;13.10;;;;;;;14.60;100.00;100819.38;5053392;28;20094;-63
2021/08/31 02:35:07;;;;;;;19.52;13.00;;;;;;;14.56;100.00;100827.88;5054387;28;20055;-65
2021/08/31 02:37:51;;;;;;;17.95;13.15;;;;;;;14.50;100.00;100833.91;5039474;28;20106;-65
2021/08/31 02:40:35;;;;;;;19.98;14.30;;;;;;;14.46;100.00;100833.34;5053024;28;20051;-65
2021/08/31 02:43:19;;;;;;;18.90;13.50;;;;;;;14.42;100.00;100836.50;5052899;28;20087;-65
2021/08/31 02:46:02;;;;;;;17.00;13.18;;;;;;;14.40;100.00;100827.78;5054114;28;20518;-65
2021/08/31 02:48:46;;;;;;;18.00;13.88;;;;;;;14.39;100.00;100834.97;5053806;28;20091;-65
2021/08/31 02:51:30;;;;;;;17.27;13.38;;;;;;;14.36;100.00;100827.25;5052738;28;20048;-65
2021/08/31 02:54:14;;;;;;;18.98;14.00;;;;;;;14.38;100.00;100835.13;5052994;28;20056;-66
2021/08/31 02:56:59;;;;;;;21.00;13.50;;;;;;;14.37;100.00;100834.28;5039139;28;20158;-65
2021/08/31 02:59:43;;;;;;;18.10;13.60;;;;;;;14.37;100.00;100833.47;5053824;28;20174;-65
2021/08/31 03:02:27;;;;;;;24.95;15.18;;;;;;;14.36;100.00;100835.28;5052808;28;20044;-65
2021/08/31 03:05:12;;;;;;;19.60;14.70;;;;;;;14.44;100.00;100842.56;5052769;28;20449;-65
2021/08/31 03:07:57;;;;;;;18.02;13.93;;;;;;;14.46;100.00;100845.91;5038806;28;20067;-65
2021/08/31 03:10:41;;;;;;;16.35;12.57;;;;;;;14.48;100.00;100847.44;5053616;28;20129;-65
2021/08/31 03:13:25;;;;;;;17.80;13.23;;;;;;;14.48;100.00;100847.44;5052443;28;20048;-65
2021/08/31 03:16:09;;;;;;;19.15;12.88;;;;;;;14.52;100.00;100842.63;5038228;28;20568;-65
2021/08/31 03:18:53;;;;;;;16.70;13.10;;;;;;;14.51;100.00;100841.75;5052839;28;20051;-65
2021/08/31 03:21:37;;;;;;;15.38;12.15;;;;;;;14.48;100.00;100841.25;5053504;28;20530;-66
2021/08/31 03:24:21;;;;;;;17.75;12.55;;;;;;;14.46;100.00;100841.41;5052476;28;20056;-65
2021/08/31 03:27:05;;;;;;;17.52;12.95;;;;;;;14.40;100.00;100846.56;5052156;28;20052;-65
2021/08/31 03:29:49;;;;;;;20.38;13.45;;;;;;;14.33;100.00;100850.84;5053524;28;20074;-66
2021/08/31 03:32:33;;;;;;;14.65;11.77;;;;;;;14.27;100.00;100859.53;5052147;28;20094;-65
2021/08/31 03:35:17;;;;;;;16.92;12.82;;;;;;;14.23;100.00;100858.13;5053669;28;20044;-63
2021/08/31 03:38:02;;;;;;;18.98;13.68;;;;;;;14.16;100.00;100865.06;5051725;28;20124;-66
2021/08/31 03:40:45;;;;;;;19.52;13.38;;;;;;;14.13;100.00;100857.31;5052128;28;20052;-66
2021/08/31 03:43:29;;;;;;;18.85;13.15;;;;;;;14.09;100.00;100861.31;5051974;28;20060;-66
2021/08/31 03:46:13;;;;;;;20.50;13.65;;;;;;;14.06;100.00;100861.63;5053282;28;20502;-66
2021/08/31 03:48:57;;;;;;;21.85;14.52;;;;;;;14.03;100.00;100872.63;5038056;28;20098;-65
2021/08/31 03:51:41;;;;;;;20.00;13.77;;;;;;;13.98;100.00;100869.56;5053502;28;20171;-66
2021/08/31 03:54:25;;;;;;;21.70;13.85;;;;;;;13.93;100.00;100874.53;5053195;28;20052;-65
2021/08/31 03:57:09;;;;;;;24.80;13.98;;;;;;;13.87;100.00;100872.47;5051845;28;20055;-65
2021/08/31 03:59:53;;;;;;;20.45;13.50;;;;;;;13.86;100.00;100871.63;5051956;28;20047;-65
2021/08/31 04:02:37;;;;;;;24.50;13.77;;;;;;;13.83;100.00;100874.59;5052127;28;20124;-65
2021/08/31 04:05:21;;;;;;;17.42;13.45;;;;;;;13.81;100.00;100883.78;5053014;28;20052;-65
2021/08/31 04:08:05;;;;;;;17.00;13.38;;;;;;;13.74;100.00;100880.84;5051751;28;20051;-65
2021/08/31 04:10:49;;;;;;;18.27;14.27;;;;;;;13.69;100.00;100882.31;5052685;28;20052;-66
2021/08/31 04:13:33;;;;;;;18.02;14.52;;;;;;;13.66;100.00;100885.28;5052768;28;20098;-65
2021/08/31 04:16:17;;;;;;;21.52;14.15;;;;;;;13.62;100.00;100878.53;5052975;28;20087;-66
2021/08/31 04:19:01;;;;;;;22.10;14.20;;;;;;;13.57;100.00;100880.81;5051507;28;20087;-65
2021/08/31 04:21:45;;;;;;;20.50;13.85;;;;;;;13.54;100.00;100889.13;5037784;28;20063;-65
2021/08/31 04:24:29;;;;;;;21.10;13.90;;;;;;;13.50;100.00;100887.75;5052982;28;20059;-65
2021/08/31 04:27:13;;;;;;;17.88;13.43;;;;;;;13.46;100.00;100894.41;5052638;28;20419;-65
2021/08/31 04:29:57;;;;;;;19.88;12.75;;;;;;;13.41;100.00;100896.66;5052849;28;20423;-65
2021/08/31 04:32:40;;;;;;;16.55;12.02;;;;;;;13.34;100.00;100898.25;5052564;28;20052;-65
2021/08/31 04:35:24;;;;;;;16.98;11.73;;;;;;;13.27;100.00;100903.34;5052781;28;20095;-65
2021/08/31 04:38:08;;;;;;;14.73;11.75;;;;;;;13.22;100.00;100905.63;5052489;28;20140;-65
2021/08/31 04:40:52;;;;;;;17.30;13.38;;;;;;;13.16;100.00;100905.38;5052330;28;20064;-65
2021/08/31 04:43:36;;;;;;;18.42;13.23;;;;;;;13.11;100.00;100905.78;5051750;28;20052;-65
2021/08/31 04:46:20;;;;;;;23.20;14.80;;;;;;;13.11;100.00;100904.94;5051646;28;20052;-65
2021/08/31 04:49:04;;;;;;;18.58;13.43;;;;;;;13.08;100.00;100903.41;5051584;28;20051;-65
2021/08/31 04:51:48;;;;;;;18.67;13.63;;;;;;;13.10;100.00;100913.97;5054392;28;20048;-65
2021/08/31 04:54:32;;;;;;;17.73;13.18;;;;;;;13.10;100.00;100913.97;5055142;28;20048;-65
2021/08/31 04:57:16;;;;;;;19.65;13.75;;;;;;;13.11;100.00;100916.50;5055255;28;20099;-65
2021/08/31 05:00:00;;;;;;;18.90;13.85;;;;;;;13.11;100.00;100916.50;5054883;28;20548;-65
2021/08/31 05:02:44;;;;;;;18.67;13.95;;;;;;;13.11;100.00;100918.31;5056143;28;20510;-65
2021/08/31 05:05:27;;;;;;;19.85;14.52;;;;;;;13.10;100.00;100922.00;5054841;28;20518;-65
2021/08/31 05:08:11;;;;;;;18.80;14.02;;;;;;;13.11;100.00;100929.03;5055787;28;20064;-63
2021/08/31 05:10:55;;;;;;;18.35;13.68;;;;;;;13.08;100.00;100921.28;5054941;28;20052;-65
2021/08/31 05:13:42;;;;;;;21.83;14.27;;;;;;;13.08;100.00;100923.97;5040539;28;20055;-65
2021/08/31 05:16:26;;;;;;;22.15;16.55;;;;;;;13.12;100.00;100933.38;5040939;28;20569;-63
2021/08/31 05:19:10;;;;;;;26.75;16.30;;;;;;;13.16;100.00;100926.78;5040407;28;20056;-65
2021/08/31 05:21:54;;;;;;;;;;;;;;;13.21;100.00;100932.53;5083456;22;20178;-68
2021/08/31 05:24:38;;;;;;;24.73;16.27;;;;;;;13.28;100.00;100934.47;5054720;28;19924;-68
2021/08/31 05:27:23;;;;;;;21.88;15.57;;;;;;;13.30;100.00;100931.66;5055344;28;20478;-68
2021/08/31 05:30:07;;;;;;;24.75;15.60;;;;;;;13.34;100.00;100939.25;5054689;28;20109;-68
2021/08/31 05:32:51;;;;;;;21.45;16.65;;;;;;;13.40;100.00;100944.03;5054524;28;20051;-68
2021/08/31 05:35:35;;;;;;;24.08;15.90;;;;;;;13.43;100.00;100938.38;5040032;28;20452;-68
2021/08/31 05:38:19;;;;;;;21.25;15.77;;;;;;;13.48;100.00;100937.94;5055428;28;20052;-68
2021/08/31 05:41:02;;;;;;;21.50;16.08;;;;;;;13.52;100.00;100947.38;5054883;28;20052;-68
2021/08/31 05:43:46;;;;;;;21.73;15.80;;;;;;;13.59;100.00;100951.16;5054306;28;20091;-68
2021/08/31 05:46:31;;;;;;;23.95;16.63;;;;;;;13.63;100.00;100958.75;5054947;28;20047;-68
2021/08/31 05:49:15;;;;;;;23.08;15.32;;;;;;;13.72;100.00;100957.03;5039926;28;20051;-68
2021/08/31 05:51:59;;;;;;;22.83;15.55;;;;;;;13.85;100.00;100957.50;5055086;28;20514;-68
2021/08/31 05:54:43;;;;;;;20.23;13.52;;;;;;;13.92;100.00;100958.63;5053740;28;20112;-68
2021/08/31 05:57:27;;;;;;;19.85;14.23;;;;;;;14.00;100.00;100962.28;5054015;28;20051;-68
2021/08/31 06:00:12;;;;;;;18.55;14.35;;;;;;;14.05;100.00;100968.00;5053611;28;20047;-68
2021/08/31 06:02:56;;;;;;;20.73;13.32;;;;;;;14.13;100.00;100976.16;5053369;28;20514;-68
2021/08/31 06:05:40;;;;;;;15.27;12.68;;;;;;;14.21;100.00;100983.47;5053874;28;20044;-68
2021/08/31 06:08:23;;;;;;;20.02;13.55;;;;;;;14.30;100.00;100979.91;5054816;28;20094;-68
2021/08/31 06:11:07;;;;;;;18.30;13.20;;;;;;;14.42;100.00;100990.28;5053430;28;20565;-68
2021/08/31 06:13:51;;;;;;;22.77;13.98;;;;;;;14.52;100.00;100987.50;5053926;28;20051;-66
2021/08/31 06:16:35;;;;;;;16.33;12.95;;;;;;;14.59;100.00;100976.00;5054718;28;20052;-68
2021/08/31 06:19:19;;;;;;;17.30;13.07;;;;;;;14.73;100.00;100974.63;5054327;28;20048;-68
2021/08/31 06:22:04;;;;;;;15.50;12.13;;;;;;;14.87;100.00;100984.81;5053011;28;20106;-68
2021/08/31 06:24:48;;;;;;;16.30;11.30;;;;;;;15.00;100.00;100977.22;5053475;28;20090;-68
2021/08/31 06:27:32;;;;;;;14.88;11.50;;;;;;;15.14;100.00;100982.03;5039304;28;20052;-68
2021/08/31 06:30:16;;;;;;;12.68;10.85;;;;;;;15.29;100.00;100977.81;5053455;28;20056;-68
2021/08/31 06:32:59;;;;;;;13.88;11.18;;;;;;;15.50;100.00;100983.69;5054160;28;20064;-68
2021/08/31 06:35:44;;;;;;;15.35;10.88;;;;;;;15.64;100.00;100995.53;5053213;28;20052;-68
2021/08/31 06:38:28;;;;;;;15.27;10.90;;;;;;;15.86;100.00;100989.59;5053983;28;20056;-68
2021/08/31 06:41:12;;;;;;;15.73;11.20;;;;;;;16.04;100.00;100992.19;5052956;28;20052;-68
2021/08/31 06:43:55;;;;;;;13.88;9.38;;;;;;;16.18;100.00;101000.50;5052890;28;20454;-68
2021/08/31 06:46:39;;;;;;;10.85;9.40;;;;;;;16.28;100.00;101003.88;5039158;28;20052;-68
2021/08/31 06:49:23;;;;;;;12.88;9.98;;;;;;;16.37;100.00;101011.00;5052895;28;20056;-68
2021/08/31 06:52:07;;;;;;;12.20;9.25;;;;;;;16.47;100.00;101011.72;5038809;28;20522;-65
2021/08/31 06:54:51;;;;;;;12.90;9.82;;;;;;;16.53;100.00;101000.31;5039047;28;20136;-68
2021/08/31 06:57:36;;;;;;;10.80;8.88;;;;;;;16.66;100.00;101008.75;5038591;28;20067;-68
2021/08/31 07:00:20;;;;;;;12.82;9.25;;;;;;;16.73;100.00;100995.47;5052827;28;20090;-68
2021/08/31 07:03:04;;;;;;;13.80;10.25;;;;;;;16.85;100.00;100994.97;5052475;28;20099;-68
2021/08/31 07:05:48;;;;;;;18.42;10.20;;;;;;;16.93;100.00;100996.84;5038487;28;20052;-68
2021/08/31 07:08:32;;;;;;;14.20;9.77;;;;;;;16.98;100.00;100999.88;5052712;28;20174;-67
2021/08/31 07:11:16;;;;;;;13.88;9.25;;;;;;;17.00;100.00;100989.78;5052510;28;20056;-68
2021/08/31 07:14:00;;;;;;;12.85;9.32;;;;;;;17.00;100.00;100995.97;5038041;28;20056;-68
2021/08/31 07:16:44;;;;;;;11.85;9.02;;;;;;;16.95;100.00;101001.03;5053584;28;20056;-68
2021/08/31 07:19:28;;;;;;;14.63;10.00;;;;;;;16.89;100.00;100990.09;5052495;28;20553;-68
2021/08/31 07:22:12;;;;;;;20.17;9.73;;;;;;;16.87;100.00;100992.13;5037951;28;20071;-67
2021/08/31 07:24:56;;;;;;;11.23;9.13;;;;;;;16.90;100.00;100995.31;5053447;28;20053;-68
2021/08/31 07:27:40;;;;;;;12.77;9.65;;;;;;;16.85;100.00;100994.97;5053122;28;20047;-68
2021/08/31 07:30:24;;;;;;;16.05;9.73;;;;;;;16.91;100.00;100998.84;5052557;28;20411;-67
2021/08/31 07:33:09;;;;;;;11.55;9.27;;;;;;;17.03;100.00;101002.91;5052377;28;20056;-68
2021/08/31 07:35:53;;;;;;;12.25;8.88;;;;;;;17.20;100.00;101005.41;5053209;28;20094;-68
2021/08/31 07:38:37;;;;;;;11.07;9.45;;;;;;;17.31;100.00;101013.16;5053297;28;20099;-68
2021/08/31 07:41:22;;;;;;;13.00;8.75;;;;;;;17.45;100.00;101007.13;5052148;28;20052;-68
2021/08/31 07:44:06;;;;;;;14.93;8.93;;;;;;;17.54;100.00;101013.34;5051993;28;20047;-68
2021/08/31 07:46:51;;;;;;;12.88;8.23;;;;;;;17.57;100.00;101019.25;5037818;28;20427;-67
2021/08/31 07:49:34;;;;;;;11.60;8.05;;;;;;;17.85;100.00;101023.25;5052153;28;20052;-68
2021/08/31 07:52:18;;;;;;;12.13;8.15;;;;;;;18.12;100.00;101020.09;5052339;28;20400;-68
2021/08/31 07:55:03;;;;;;;9.90;7.95;;;;;;;18.47;99.95;101011.56;5053365;28;20051;-66
2021/08/31 07:57:48;;;;;;;11.40;8.18;;;;;;;18.62;95.27;101017.88;5053166;28;20114;-68
2021/08/31 08:00:32;;;;;;;9.65;7.53;;;;;;;18.66;94.83;101024.63;5051925;28;20102;-68
2021/08/31 08:03:15;;;;;;;;;;;;;;;18.63;93.46;101025.81;5052041;28;20167;-68
2021/08/31 08:05:59;;;;;;;11.50;8.00;;;;;;;18.74;93.51;101027.25;5051849;28;19935;-67
2021/08/31 08:08:43;;;;;;;10.15;7.47;;;;;;;18.89;91.88;101031.69;5037986;28;20503;-67
2021/08/31 08:11:27;;;;;;;9.15;7.30;;;;;;;18.93;91.51;101045.69;5051847;28;20044;-68
2021/08/31 08:14:11;;;;;;;;;;;;;;;18.94;90.55;101045.53;5052161;28;20415;-68
2021/08/31 08:16:55;;;;;;;10.53;8.37;;;;;;;18.91;91.94;101055.84;5052018;28;19920;-68
2021/08/31 08:19:39;;;;;;;11.57;8.27;;;;;;;18.71;91.59;101055.47;5051677;28;20043;-68
2021/08/31 08:22:23;;;;;;;11.00;8.13;;;;;;;18.73;90.44;101058.84;5037511;28;20052;-67
2021/08/31 08:25:07;;;;;;;11.52;7.47;;;;;;;18.80;90.49;101054.38;5052414;28;20060;-68
2021/08/31 08:27:51;;;;;;;11.05;7.88;;;;;;;19.01;90.40;101056.44;5055717;28;20047;-68
2021/08/31 08:30:35;;;;;;;11.07;7.13;;;;;;;19.18;92.40;101052.66;5056435;28;20052;-68
2021/08/31 08:33:21;;;;;;;11.02;6.95;;;;;;;19.39;87.78;101056.34;5056666;28;20052;-68
2021/08/31 08:36:06;;;;;;;13.15;7.68;;;;;;;19.65;87.99;101051.41;5055654;28;20047;-68
2021/08/31 08:38:50;;;;;;;10.18;7.47;;;;;;;19.88;87.84;101062.16;5056326;28;20090;-68
2021/08/31 08:41:34;;;;;;;;;;;;;;;20.07;84.00;101064.34;5055683;28;20166;-68
2021/08/31 08:44:18;;;;;;;8.73;7.25;;;;;;;20.44;84.36;101075.09;5055450;28;19966;-68
2021/08/31 08:47:02;;;;;;;;;;;;;;;20.63;83.06;101079.94;5056835;28;20055;-68
2021/08/31 08:49:49;;;;;;;9.20;7.40;;;;;;;20.60;79.90;101074.91;5055138;28;19919;-68
2021/08/31 08:52:34;;;;;;;9.57;7.55;;;;;;;20.60;79.29;101080.31;5054977;28;20052;-68
2021/08/31 08:55:18;;;;;;;9.88;7.82;;;;;;;20.70;80.74;101072.69;5056080;28;20114;-68
2021/08/31 08:58:01;;;;;;;10.25;8.10;;;;;;;20.65;78.77;101081.44;5056462;28;20099;-67
2021/08/31 09:00:55;;;;;;;17.02;8.52;;;;;;;20.82;78.58;101084.75;5040828;28;20056;-68
2021/08/31 09:03:41;;;;;;;12.25;8.00;;;;;;;20.76;79.93;101077.38;5055209;28;20036;-68
2021/08/31 09:06:25;;;;;;;12.38;7.75;;;;;;;20.88;79.12;101079.44;5055050;28;20494;-68
2021/08/31 09:09:10;;;;;;;12.55;7.95;;;;;;;20.98;78.29;101079.13;5041112;28;20079;-68
2021/08/31 09:11:54;;;;;;;10.50;8.07;;;;;;;21.41;76.46;101082.53;5056409;28;20051;-68
2021/08/31 09:14:40;;;;;;;15.82;8.65;;;;;;;21.48;73.04;101083.41;5055114;28;20051;-68
2021/08/31 09:17:24;;;;;;;11.65;7.75;;;;;;;21.69;73.34;101086.13;5054849;28;20098;-68
2021/08/31 09:20:16;;;;;;;10.75;7.38;;;;;;;21.91;73.07;101086.94;5055485;28;20411;-69
2021/08/31 09:23:01;;;;;;;7.78;6.38;;;;;;;21.91;69.27;101089.66;5054647;28;20052;-68
2021/08/31 09:25:47;;;;;;;9.48;7.40;;;;;;;21.69;72.12;101086.13;5040547;28;20110;-67
2021/08/31 09:28:37;;;;;;;10.25;7.75;;;;;;;21.66;71.68;101086.53;5040532;28;20410;-67
2021/08/31 09:31:23;;;;;;;9.40;7.57;;;;;;;21.41;70.77;101087.94;5054634;28;20044;-68
2021/08/31 09:34:07;;;;;;;9.73;7.88;;;;;;;21.37;71.70;101097.47;5055232;28;20051;-68
2021/08/31 09:36:51;;;;;;;9.63;7.68;;;;;;;21.52;70.17;101100.13;5039849;28;20048;-68
2021/08/31 09:39:35;;;;;;;11.35;6.97;;;;;;;21.49;71.42;101101.34;5054095;28;20048;-68
2021/08/31 09:42:19;;;;;;;;;;;;;;;21.62;69.89;101095.22;5054424;28;20099;-68
2021/08/31 09:45:05;;;;;;;9.47;7.33;;;;;;;21.80;70.52;101101.03;5054311;28;19919;-67
2021/08/31 09:47:49;;;;;;;11.55;7.32;;;;;;;22.01;69.54;101095.56;5054104;28;20055;-68
2021/08/31 09:50:34;;;;;;;;;;;;;;;22.16;66.83;101099.00;5055536;28;20060;-68
2021/08/31 09:53:26;;;;;;;7.85;6.93;;;;;;;22.64;67.56;101098.91;5054384;28;19920;-68
2021/08/31 09:56:12;;;;;;;8.60;7.13;;;;;;;23.11;65.46;101098.88;5053832;28;20048;-68
2021/08/31 09:58:58;;;;;;;9.20;7.72;;;;;;;23.10;63.97;101099.06;5053720;28;20411;-68
2021/08/31 10:01:42;;;;;;;8.15;6.65;;;;;;;23.36;64.81;101091.84;5054560;28;20059;-68
2021/08/31 10:04:26;;;;;;;;;;;;;;;23.70;61.60;101094.38;5054166;28;20091;-66
2021/08/31 10:07:10;;;;;;;10.60;7.30;;;;;;;24.85;59.56;101090.84;5039550;28;19919;-68
2021/08/31 10:09:54;;;;;;;12.15;7.03;;;;;;;26.00;55.85;101082.13;5053811;28;20044;-68
2021/08/31 10:12:39;;;;;;;8.98;6.50;;;;;;;26.41;54.01;101076.00;5053671;28;20091;-68
2021/08/31 10:15:23;;;;;;;8.43;7.07;;;;;;;26.97;51.35;101073.88;5053761;28;20064;-69
2021/08/31 10:18:08;;;;;;;8.05;6.82;;;;;;;27.03;48.96;101077.38;5053409;28;20048;-68
2021/08/31 10:20:55;;;;;;;10.95;7.05;;;;;;;27.08;49.93;101080.22;5054087;28;20059;-68
2021/08/31 10:23:45;;;;;;;9.95;6.22;;;;;;;27.31;50.83;101085.00;5039735;28;20064;-68
2021/08/31 10:26:31;;;;;;;10.50;6.63;;;;;;;27.63;48.82;101079.00;5053750;28;20090;-68
2021/08/31 10:29:15;;;;;;;10.05;7.05;;;;;;;27.73;48.99;101076.53;5053482;28;20517;-68
2021/08/31 10:31:59;;;;;;;11.50;6.90;;;;;;;27.75;49.45;101082.63;5054353;28;20154;-68
2021/08/31 10:34:44;;;;;;;7.28;6.18;;;;;;;28.08;48.30;101084.78;5053048;28;20059;-68
2021/08/31 10:37:43;;;;;;;9.10;6.13;;;;;;;28.25;46.82;101089.31;5054485;28;20072;-68
2021/08/31 10:40:55;;;;;;;7.28;6.40;;;;;;;28.37;47.48;101089.34;5052854;28;20118;-68
2021/08/31 10:43:53;;;;;;;6.85;5.88;;;;;;;28.09;46.84;101090.03;5053107;28;20044;-68
2021/08/31 10:46:55;;;;;;;8.88;5.57;;;;;;;27.28;48.83;101091.78;5038778;28;20080;-68
2021/08/31 10:49:57;;;;;;;8.25;6.13;;;;;;;26.33;49.14;101095.47;5052448;28;20586;-68
2021/08/31 10:52:53;;;;;;;8.35;6.13;;;;;;;26.90;47.55;101097.75;5053810;28;20079;-66
2021/08/31 10:55:38;;;;;;;8.90;5.30;;;;;;;27.97;45.98;101094.69;5053844;28;20044;-66
2021/08/31 10:58:42;;;;;;;9.63;5.40;;;;;;;29.64;41.71;101089.75;5052751;28;20132;-68
2021/08/31 11:01:40;;;;;;;6.63;5.38;;;;;;;30.67;38.69;101089.78;5052696;28;20044;-68
2021/08/31 11:04:26;;;;;;;8.18;5.40;;;;;;;30.69;38.67;101084.00;5053739;28;20520;-68
2021/08/31 11:07:09;;;;;;;4.95;4.45;;;;;;;31.25;38.22;101081.66;5052745;28;20076;-68
2021/08/31 11:09:55;;;;;;;10.23;5.60;;;;;;;31.93;36.17;101078.19;5053538;28;20048;-68
2021/08/31 11:12:39;;;;;;;7.57;5.50;;;;;;;32.60;34.72;101087.47;5038966;28;20490;-68
2021/08/31 11:15:25;;;;;;;6.63;5.10;;;;;;;32.57;35.44;101088.84;5053361;28;20048;-68
2021/08/31 11:18:11;;;;;;;6.70;5.28;;;;;;;33.25;34.66;101097.72;5052308;28;20641;-68
2021/08/31 11:20:55;;;;;;;5.50;4.95;;;;;;;33.39;33.58;101092.50;5065704;22;20038;-70
2021/08/31 11:23:39;;;;;;;5.82;4.82;;;;;;;34.43;32.24;101090.84;5052256;28;20091;-70
2021/08/31 11:26:25;;;;;;;6.80;5.10;;;;;;;34.61;31.78;101099.41;5051948;28;20133;-71
2021/08/31 11:29:10;;;;;;;8.82;5.68;;;;;;;34.14;30.88;101087.84;5053448;28;20102;-71
2021/08/31 11:32:02;;;;;;;6.38;5.32;;;;;;;32.56;32.12;101086.38;5053060;28;20047;-71
2021/08/31 11:35:01;;;;;;;7.78;5.30;;;;;;;31.45;35.67;101094.84;5038390;28;20052;-70
2021/08/31 11:37:48;;;;;;;9.70;5.82;;;;;;;30.72;36.49;101098.09;5052115;28;20083;-70
2021/08/31 11:40:32;;;;;;;5.57;5.07;;;;;;;29.79;36.40;101088.09;5053287;28;20502;-70
2021/08/31 11:43:16;;;;;;;6.28;4.97;;;;;;;30.95;36.16;101091.50;5052005;28;20052;-70
2021/08/31 11:46:00;;;;;;;5.70;5.05;;;;;;;32.19;33.88;101102.09;5052264;28;20048;-70
2021/08/31 11:48:43;;;;;;;5.38;4.88;;;;;;;33.24;32.54;101098.81;5052214;28;20454;-70
2021/08/31 11:51:27;;;;;;;6.30;5.20;;;;;;;33.67;32.59;101100.28;5052011;28;20048;-70
2021/08/31 11:54:13;;;;;;;5.65;4.88;;;;;;;34.07;31.36;101095.59;5052911;28;20422;-71
2021/08/31 11:57:00;;;;;;;5.10;4.60;;;;;;;34.67;30.59;101098.25;5052336;28;20051;-69
2021/08/31 11:59:45;;;;;;;4.43;4.03;;;;;;;34.40;29.61;101103.34;5053413;28;20048;-71
2021/08/31 12:02:30;;;;;;;7.88;4.97;;;;;;;34.59;29.09;101103.56;5041635;28;20060;-71
2021/08/31 12:05:14;;;;;;;5.80;4.70;;;;;;;34.57;29.39;101106.59;5055867;28;20051;-70
2021/08/31 12:07:58;;;;;;;6.13;5.00;;;;;;;35.61;27.74;101101.66;5056127;28;20126;-70
2021/08/31 12:10:43;;;;;;;5.28;4.78;;;;;;;36.57;26.53;101100.56;5055743;28;20048;-69
2021/08/31 12:13:27;;;;;;;6.40;4.97;;;;;;;38.07;25.79;101092.00;5041536;28;20091;-67
2021/08/31 12:16:14;;;;;;;6.85;4.85;;;;;;;38.98;24.69;101086.34;5056023;28;20052;-69
2021/08/31 12:19:13;;;;;;;9.95;5.13;;;;;;;39.03;24.05;101089.03;5042395;28;20087;-69
2021/08/31 12:22:12;;;;;;;7.35;5.20;;;;;;;39.14;23.75;101091.25;5056398;28;20071;-70
2021/08/31 12:24:57;;;;;;;5.15;4.65;;;;;;;39.71;22.75;101101.69;5041671;28;20056;-69
2021/08/31 12:27:49;;;;;;;4.85;4.40;;;;;;;39.42;22.75;101094.84;5055742;28;20098;-69
2021/08/31 12:30:36;;;;;;;5.18;4.68;;;;;;;39.24;22.94;101093.03;5041793;28;20048;-69
2021/08/31 12:33:32;;;;;;;5.40;4.50;;;;;;;40.03;22.68;101096.66;5055298;28;20118;-69
2021/08/31 12:36:17;;;;;;;4.53;4.13;;;;;;;40.62;21.92;101096.19;5041608;28;20060;-69